sensor_id;sensor_type;location;lat;lon;timestamp;pressure;altitude;pressure_sealevel;temperature
71960;BMP280;59832;51.146;14.024;2023-06-22T04:02:31;98623.72;;;18.26
71960;BMP280;59832;51.146;14.024;2023-06-22T04:04:58;98626.88;;;18.40
71960;BMP280;59832;51.146;14.024;2023-06-22T04:07:29;98625.94;;;18.58
71960;BMP280;59832;51.146;14.024;2023-06-22T04:09:56;98629.13;;;18.72
71960;BMP280;59832;51.146;14.024;2023-06-22T04:12:23;98625.66;;;18.82
71960;BMP280;59832;51.146;14.024;2023-06-22T04:14:49;98623.34;;;18.91
71960;BMP280;59832;51.146;14.024;2023-06-22T04:17:16;98621.75;;;19.01
71960;BMP280;59832;51.146;14.024;2023-06-22T04:19:44;98622.69;;;19.14
71960;BMP280;59832;51.146;14.024;2023-06-22T04:22:10;98643.88;;;19.25
71960;BMP280;59832;51.146;14.024;2023-06-22T04:24:38;98641.84;;;19.40
71960;BMP280;59832;51.146;14.024;2023-06-22T04:27:05;98642.75;;;19.53
71960;BMP280;59832;51.146;14.024;2023-06-22T04:29:31;98638.06;;;19.71
71960;BMP280;59832;51.146;14.024;2023-06-22T04:31:58;98635.63;;;19.84
71960;BMP280;59832;51.146;14.024;2023-06-22T04:34:29;98648.19;;;20.05
71960;BMP280;59832;51.146;14.024;2023-06-22T04:36:56;98646.41;;;20.21
71960;BMP280;59832;51.146;14.024;2023-06-22T04:39:23;98654.91;;;20.42
71960;BMP280;59832;51.146;14.024;2023-06-22T04:41:50;98647.91;;;20.58
71960;BMP280;59832;51.146;14.024;2023-06-22T04:44:18;98641.91;;;20.81
71960;BMP280;59832;51.146;14.024;2023-06-22T04:46:51;98647.75;;;20.85
71960;BMP280;59832;51.146;14.024;2023-06-22T04:49:27;98650.06;;;20.99
71960;BMP280;59832;51.146;14.024;2023-06-22T04:52:09;98654.66;;;21.24
71960;BMP280;59832;51.146;14.024;2023-06-22T04:54:37;98654.81;;;21.17
71960;BMP280;59832;51.146;14.024;2023-06-22T04:57:07;98666.19;;;21.39
71960;BMP280;59832;51.146;14.024;2023-06-22T04:59:37;98668.25;;;21.60
71960;BMP280;59832;51.146;14.024;2023-06-22T05:02:05;98672.47;;;21.70
71960;BMP280;59832;51.146;14.024;2023-06-22T05:04:35;98680.19;;;21.86
71960;BMP280;59832;51.146;14.024;2023-06-22T05:07:08;98677.16;;;22.04
71960;BMP280;59832;51.146;14.024;2023-06-22T05:09:34;98677.59;;;22.15
71960;BMP280;59832;51.146;14.024;2023-06-22T05:12:02;98685.47;;;22.12
71960;BMP280;59832;51.146;14.024;2023-06-22T05:14:29;98695.38;;;22.29
71960;BMP280;59832;51.146;14.024;2023-06-22T05:16:56;98699.75;;;22.45
71960;BMP280;59832;51.146;14.024;2023-06-22T05:19:30;98697.22;;;22.83
71960;BMP280;59832;51.146;14.024;2023-06-22T05:22:00;98704.59;;;22.97
71960;BMP280;59832;51.146;14.024;2023-06-22T05:24:27;98705.41;;;23.06
71960;BMP280;59832;51.146;14.024;2023-06-22T05:26:54;98719.66;;;23.27
71960;BMP280;59832;51.146;14.024;2023-06-22T05:29:21;98715.38;;;23.33
71960;BMP280;59832;51.146;14.024;2023-06-22T05:31:49;98720.97;;;23.44
71960;BMP280;59832;51.146;14.024;2023-06-22T05:34:15;98718.66;;;23.59
71960;BMP280;59832;51.146;14.024;2023-06-22T05:36:42;98720.91;;;23.69
71960;BMP280;59832;51.146;14.024;2023-06-22T05:39:12;98723.66;;;24.09
71960;BMP280;59832;51.146;14.024;2023-06-22T05:41:40;98724.63;;;24.03
71960;BMP280;59832;51.146;14.024;2023-06-22T05:44:06;98726.91;;;24.01
71960;BMP280;59832;51.146;14.024;2023-06-22T05:46:33;98727.28;;;24.12
71960;BMP280;59832;51.146;14.024;2023-06-22T05:49:00;98733.69;;;23.98
71960;BMP280;59832;51.146;14.024;2023-06-22T05:51:26;98733.00;;;24.07
71960;BMP280;59832;51.146;14.024;2023-06-22T05:53:53;98718.63;;;24.36
71960;BMP280;59832;51.146;14.024;2023-06-22T05:56:19;98714.16;;;23.94
71960;BMP280;59832;51.146;14.024;2023-06-22T05:58:47;98706.94;;;23.89
71960;BMP280;59832;51.146;14.024;2023-06-22T06:01:13;98708.13;;;23.97
71960;BMP280;59832;51.146;14.024;2023-06-22T06:03:42;98710.41;;;24.38
71960;BMP280;59832;51.146;14.024;2023-06-22T06:06:08;98707.97;;;24.52
71960;BMP280;59832;51.146;14.024;2023-06-22T06:08:38;98707.09;;;24.46
71960;BMP280;59832;51.146;14.024;2023-06-22T06:11:04;98708.50;;;24.38
71960;BMP280;59832;51.146;14.024;2023-06-22T06:13:31;98707.94;;;24.43
71960;BMP280;59832;51.146;14.024;2023-06-22T06:15:57;98704.66;;;24.21
71960;BMP280;59832;51.146;14.024;2023-06-22T06:18:25;98710.94;;;24.64
71960;BMP280;59832;51.146;14.024;2023-06-22T06:20:52;98694.31;;;24.30
71960;BMP280;59832;51.146;14.024;2023-06-22T06:23:19;98697.44;;;24.47
71960;BMP280;59832;51.146;14.024;2023-06-22T06:25:45;98695.81;;;24.49
71960;BMP280;59832;51.146;14.024;2023-06-22T06:28:12;98697.28;;;24.81
71960;BMP280;59832;51.146;14.024;2023-06-22T06:30:38;98688.16;;;24.46
71960;BMP280;59832;51.146;14.024;2023-06-22T06:33:05;98684.03;;;24.67
71960;BMP280;59832;51.146;14.024;2023-06-22T06:35:35;98672.88;;;25.06
71960;BMP280;59832;51.146;14.024;2023-06-22T06:38:02;98668.06;;;24.86
71960;BMP280;59832;51.146;14.024;2023-06-22T06:40:29;98660.00;;;25.11
71960;BMP280;59832;51.146;14.024;2023-06-22T06:42:56;98649.72;;;24.99
71960;BMP280;59832;51.146;14.024;2023-06-22T06:45:23;98632.09;;;24.45
71960;BMP280;59832;51.146;14.024;2023-06-22T06:47:51;98608.88;;;24.20
71960;BMP280;59832;51.146;14.024;2023-06-22T06:50:18;98608.88;;;24.20
71960;BMP280;59832;51.146;14.024;2023-06-22T06:52:45;98612.16;;;23.89
71960;BMP280;59832;51.146;14.024;2023-06-22T06:55:12;98615.47;;;24.12
71960;BMP280;59832;51.146;14.024;2023-06-22T06:57:39;98615.81;;;23.92
71960;BMP280;59832;51.146;14.024;2023-06-22T07:00:07;98607.94;;;24.44
71960;BMP280;59832;51.146;14.024;2023-06-22T07:02:38;98612.75;;;24.24
71960;BMP280;59832;51.146;14.024;2023-06-22T07:05:06;98594.94;;;24.53
71960;BMP280;59832;51.146;14.024;2023-06-22T07:07:33;98593.41;;;24.74
71960;BMP280;59832;51.146;14.024;2023-06-22T07:10:04;98590.38;;;24.76
71960;BMP280;59832;51.146;14.024;2023-06-22T07:12:32;98594.66;;;24.51
71960;BMP280;59832;51.146;14.024;2023-06-22T07:15:06;98602.56;;;24.39
71960;BMP280;59832;51.146;14.024;2023-06-22T07:17:37;98613.09;;;24.66
71960;BMP280;59832;51.146;14.024;2023-06-22T07:20:04;98612.63;;;24.68
71960;BMP280;59832;51.146;14.024;2023-06-22T07:22:42;98619.09;;;24.45
71960;BMP280;59832;51.146;14.024;2023-06-22T07:25:09;98626.69;;;24.97
71960;BMP280;59832;51.146;14.024;2023-06-22T07:27:37;98630.19;;;25.22
71960;BMP280;59832;51.146;14.024;2023-06-22T07:30:04;98631.97;;;25.34
71960;BMP280;59832;51.146;14.024;2023-06-22T07:32:31;98624.53;;;25.68
71960;BMP280;59832;51.146;14.024;2023-06-22T07:34:58;98625.75;;;26.00
71960;BMP280;59832;51.146;14.024;2023-06-22T07:37:24;98620.06;;;26.11
71960;BMP280;59832;51.146;14.024;2023-06-22T07:39:50;98618.03;;;26.06
71960;BMP280;59832;51.146;14.024;2023-06-22T07:42:20;98616.75;;;26.10
71960;BMP280;59832;51.146;14.024;2023-06-22T07:44:46;98614.19;;;25.92
71960;BMP280;59832;51.146;14.024;2023-06-22T07:47:13;98618.38;;;25.90
71960;BMP280;59832;51.146;14.024;2023-06-22T07:49:39;98620.56;;;25.91
71960;BMP280;59832;51.146;14.024;2023-06-22T07:52:06;98623.53;;;26.40
71960;BMP280;59832;51.146;14.024;2023-06-22T07:54:33;98608.84;;;25.87
71960;BMP280;59832;51.146;14.024;2023-06-22T07:56:59;98623.03;;;26.51
71960;BMP280;59832;51.146;14.024;2023-06-22T07:59:26;98617.78;;;26.36
71960;BMP280;59832;51.146;14.024;2023-06-22T08:01:52;98626.63;;;27.01
71960;BMP280;59832;51.146;14.024;2023-06-22T08:04:19;98627.19;;;26.34
71960;BMP280;59832;51.146;14.024;2023-06-22T08:06:46;98636.25;;;26.24
71960;BMP280;59832;51.146;14.024;2023-06-22T08:09:12;98630.94;;;26.66
71960;BMP280;59832;51.146;14.024;2023-06-22T08:11:39;98624.22;;;26.97
71960;BMP280;59832;51.146;14.024;2023-06-22T08:14:05;98628.38;;;27.04
71960;BMP280;59832;51.146;14.024;2023-06-22T08:16:32;98618.50;;;26.84
71960;BMP280;59832;51.146;14.024;2023-06-22T08:18:58;98628.41;;;26.47
71960;BMP280;59832;51.146;14.024;2023-06-22T08:21:25;98624.88;;;26.60
71960;BMP280;59832;51.146;14.024;2023-06-22T08:23:51;98616.72;;;26.43
71960;BMP280;59832;51.146;14.024;2023-06-22T08:26:18;98611.66;;;26.87
71960;BMP280;59832;51.146;14.024;2023-06-22T08:28:45;98619.28;;;27.14
71960;BMP280;59832;51.146;14.024;2023-06-22T08:31:12;98614.28;;;27.01
71960;BMP280;59832;51.146;14.024;2023-06-22T08:33:40;98607.53;;;26.95
71960;BMP280;59832;51.146;14.024;2023-06-22T08:36:15;98610.19;;;27.53
71960;BMP280;59832;51.146;14.024;2023-06-22T08:38:42;98608.63;;;27.90
71960;BMP280;59832;51.146;14.024;2023-06-22T08:41:10;98603.59;;;27.43
71960;BMP280;59832;51.146;14.024;2023-06-22T08:43:37;98603.97;;;27.36
71960;BMP280;59832;51.146;14.024;2023-06-22T08:46:03;98612.19;;;27.44
71960;BMP280;59832;51.146;14.024;2023-06-22T08:48:31;98604.63;;;27.31
71960;BMP280;59832;51.146;14.024;2023-06-22T08:50:57;98608.47;;;26.83
71960;BMP280;59832;51.146;14.024;2023-06-22T08:53:23;98612.81;;;27.39
71960;BMP280;59832;51.146;14.024;2023-06-22T08:55:50;98603.63;;;27.58
71960;BMP280;59832;51.146;14.024;2023-06-22T08:58:17;98600.34;;;28.12
71960;BMP280;59832;51.146;14.024;2023-06-22T09:00:45;98599.97;;;27.84
71960;BMP280;59832;51.146;14.024;2023-06-22T09:03:11;98603.06;;;27.39
71960;BMP280;59832;51.146;14.024;2023-06-22T09:05:38;98605.34;;;27.32
71960;BMP280;59832;51.146;14.024;2023-06-22T09:08:05;98600.19;;;27.66
71960;BMP280;59832;51.146;14.024;2023-06-22T09:10:32;98592.81;;;28.20
71960;BMP280;59832;51.146;14.024;2023-06-22T09:12:59;98591.03;;;27.91
71960;BMP280;59832;51.146;14.024;2023-06-22T09:15:25;98589.09;;;27.42
71960;BMP280;59832;51.146;14.024;2023-06-22T09:17:52;98592.34;;;27.66
71960;BMP280;59832;51.146;14.024;2023-06-22T09:20:20;98579.44;;;27.63
71960;BMP280;59832;51.146;14.024;2023-06-22T09:22:47;98580.72;;;27.53
71960;BMP280;59832;51.146;14.024;2023-06-22T09:25:13;98589.03;;;28.41
71960;BMP280;59832;51.146;14.024;2023-06-22T09:27:40;98589.00;;;27.37
71960;BMP280;59832;51.146;14.024;2023-06-22T09:30:07;98590.09;;;28.09
71960;BMP280;59832;51.146;14.024;2023-06-22T09:32:34;98582.66;;;27.87
71960;BMP280;59832;51.146;14.024;2023-06-22T09:35:03;98582.84;;;27.83
71960;BMP280;59832;51.146;14.024;2023-06-22T09:37:32;98581.06;;;28.50
71960;BMP280;59832;51.146;14.024;2023-06-22T09:39:58;98573.59;;;27.53
71960;BMP280;59832;51.146;14.024;2023-06-22T09:42:25;98570.41;;;27.64
71960;BMP280;59832;51.146;14.024;2023-06-22T09:44:51;98572.38;;;28.04
71960;BMP280;59832;51.146;14.024;2023-06-22T09:47:18;98563.50;;;28.16
71960;BMP280;59832;51.146;14.024;2023-06-22T09:49:47;98565.31;;;28.24
71960;BMP280;59832;51.146;14.024;2023-06-22T09:52:15;98561.00;;;28.07
71960;BMP280;59832;51.146;14.024;2023-06-22T09:54:41;98567.19;;;28.44
71960;BMP280;59832;51.146;14.024;2023-06-22T09:57:08;98554.22;;;28.81
71960;BMP280;59832;51.146;14.024;2023-06-22T09:59:35;98557.72;;;28.98
71960;BMP280;59832;51.146;14.024;2023-06-22T10:02:01;98554.28;;;28.86
71960;BMP280;59832;51.146;14.024;2023-06-22T10:04:28;98551.94;;;29.56
71960;BMP280;59832;51.146;14.024;2023-06-22T10:06:55;98556.97;;;29.54
71960;BMP280;59832;51.146;14.024;2023-06-22T10:09:22;98551.13;;;29.39
71960;BMP280;59832;51.146;14.024;2023-06-22T10:11:48;98554.38;;;30.18
71960;BMP280;59832;51.146;14.024;2023-06-22T10:14:15;98546.81;;;29.78
71960;BMP280;59832;51.146;14.024;2023-06-22T10:16:41;98553.03;;;28.56
71960;BMP280;59832;51.146;14.024;2023-06-22T10:19:08;98553.97;;;29.04
71960;BMP280;59832;51.146;14.024;2023-06-22T10:21:35;98551.25;;;28.93
71960;BMP280;59832;51.146;14.024;2023-06-22T10:24:01;98546.97;;;29.21
71960;BMP280;59832;51.146;14.024;2023-06-22T10:26:35;98539.66;;;29.05
71960;BMP280;59832;51.146;14.024;2023-06-22T10:29:02;98538.34;;;29.58
71960;BMP280;59832;51.146;14.024;2023-06-22T10:31:32;98536.47;;;30.11
71960;BMP280;59832;51.146;14.024;2023-06-22T10:33:59;98539.72;;;29.42
71960;BMP280;59832;51.146;14.024;2023-06-22T10:36:26;98538.94;;;29.78
71960;BMP280;59832;51.146;14.024;2023-06-22T10:38:52;98538.22;;;29.30
71960;BMP280;59832;51.146;14.024;2023-06-22T10:41:19;98523.56;;;29.55
71960;BMP280;59832;51.146;14.024;2023-06-22T10:43:46;98513.97;;;29.46
71960;BMP280;59832;51.146;14.024;2023-06-22T10:46:12;98517.34;;;29.52
71960;BMP280;59832;51.146;14.024;2023-06-22T10:48:39;98525.81;;;29.73
71960;BMP280;59832;51.146;14.024;2023-06-22T10:51:06;98519.34;;;29.63
71960;BMP280;59832;51.146;14.024;2023-06-22T10:53:32;98512.28;;;29.43
71960;BMP280;59832;51.146;14.024;2023-06-22T10:55:59;98511.97;;;29.72
71960;BMP280;59832;51.146;14.024;2023-06-22T10:58:26;98504.66;;;29.39
71960;BMP280;59832;51.146;14.024;2023-06-22T11:00:52;98503.38;;;28.67
71960;BMP280;59832;51.146;14.024;2023-06-22T11:03:19;98506.44;;;28.60
71960;BMP280;59832;51.146;14.024;2023-06-22T11:05:47;98500.47;;;28.91
71960;BMP280;59832;51.146;14.024;2023-06-22T11:08:14;98501.75;;;28.69
71960;BMP280;59832;51.146;14.024;2023-06-22T11:10:43;98498.69;;;29.39
71960;BMP280;59832;51.146;14.024;2023-06-22T11:13:09;98498.75;;;29.50
71960;BMP280;59832;51.146;14.024;2023-06-22T11:15:38;98500.31;;;29.79
71960;BMP280;59832;51.146;14.024;2023-06-22T11:18:05;98501.94;;;29.65
71960;BMP280;59832;51.146;14.024;2023-06-22T11:20:33;98491.66;;;29.62
71960;BMP280;59832;51.146;14.024;2023-06-22T11:23:05;98485.38;;;29.96
71960;BMP280;59832;51.146;14.024;2023-06-22T11:25:35;98489.56;;;29.71
71960;BMP280;59832;51.146;14.024;2023-06-22T11:28:02;98507.41;;;29.62
71960;BMP280;59832;51.146;14.024;2023-06-22T11:30:30;98492.63;;;29.22
71960;BMP280;59832;51.146;14.024;2023-06-22T11:32:58;98487.38;;;29.64
71960;BMP280;59832;51.146;14.024;2023-06-22T11:35:25;98497.78;;;29.47
71960;BMP280;59832;51.146;14.024;2023-06-22T11:37:52;98493.19;;;29.37
71960;BMP280;59832;51.146;14.024;2023-06-22T11:40:18;98478.13;;;29.74
71960;BMP280;59832;51.146;14.024;2023-06-22T11:42:45;98477.19;;;29.83
71960;BMP280;59832;51.146;14.024;2023-06-22T11:45:11;98471.66;;;29.64
71960;BMP280;59832;51.146;14.024;2023-06-22T11:47:38;98463.69;;;30.06
71960;BMP280;59832;51.146;14.024;2023-06-22T11:50:06;98461.41;;;29.72
71960;BMP280;59832;51.146;14.024;2023-06-22T11:52:33;98464.69;;;29.56
71960;BMP280;59832;51.146;14.024;2023-06-22T11:55:02;98461.75;;;29.06
71960;BMP280;59832;51.146;14.024;2023-06-22T11:57:36;98455.09;;;29.41
71960;BMP280;59832;51.146;14.024;2023-06-22T12:00:04;98469.44;;;30.21
71960;BMP280;59832;51.146;14.024;2023-06-22T12:02:43;98461.19;;;29.70
71960;BMP280;59832;51.146;14.024;2023-06-22T12:05:12;98454.72;;;29.65
71960;BMP280;59832;51.146;14.024;2023-06-22T12:07:38;98448.66;;;30.18
71960;BMP280;59832;51.146;14.024;2023-06-22T12:10:05;98448.31;;;29.77
71960;BMP280;59832;51.146;14.024;2023-06-22T12:12:32;98440.81;;;30.40
71960;BMP280;59832;51.146;14.024;2023-06-22T12:14:58;98446.97;;;30.04
71960;BMP280;59832;51.146;14.024;2023-06-22T12:17:32;98440.31;;;29.38
71960;BMP280;59832;51.146;14.024;2023-06-22T12:19:58;98433.94;;;29.14
71960;BMP280;59832;51.146;14.024;2023-06-22T12:22:24;98425.31;;;29.44
71960;BMP280;59832;51.146;14.024;2023-06-22T12:24:51;98423.16;;;30.24
71960;BMP280;59832;51.146;14.024;2023-06-22T12:27:17;98419.56;;;30.60
71960;BMP280;59832;51.146;14.024;2023-06-22T12:29:47;98413.75;;;31.06
71960;BMP280;59832;51.146;14.024;2023-06-22T12:32:14;98411.22;;;30.67
71960;BMP280;59832;51.146;14.024;2023-06-22T12:34:42;98418.59;;;30.13
71960;BMP280;59832;51.146;14.024;2023-06-22T12:37:09;98409.06;;;30.38
71960;BMP280;59832;51.146;14.024;2023-06-22T12:39:36;98404.28;;;30.14
71960;BMP280;59832;51.146;14.024;2023-06-22T12:42:02;98414.81;;;30.59
71960;BMP280;59832;51.146;14.024;2023-06-22T12:44:28;98405.94;;;30.73
71960;BMP280;59832;51.146;14.024;2023-06-22T12:46:55;98405.47;;;30.74
71960;BMP280;59832;51.146;14.024;2023-06-22T12:49:21;98396.41;;;30.53
71960;BMP280;59832;51.146;14.024;2023-06-22T12:51:48;98402.50;;;31.11
71960;BMP280;59832;51.146;14.024;2023-06-22T12:54:14;98391.59;;;30.79
71960;BMP280;59832;51.146;14.024;2023-06-22T12:56:41;98394.47;;;30.54
71960;BMP280;59832;51.146;14.024;2023-06-22T12:59:10;98393.94;;;29.83
71960;BMP280;59832;51.146;14.024;2023-06-22T13:01:36;98397.63;;;29.38
71960;BMP280;59832;51.146;14.024;2023-06-22T13:04:04;98406.97;;;29.50
71960;BMP280;59832;51.146;14.024;2023-06-22T13:06:30;98396.94;;;28.95
71960;BMP280;59832;51.146;14.024;2023-06-22T13:08:57;98398.94;;;29.11
71960;BMP280;59832;51.146;14.024;2023-06-22T13:11:43;98389.53;;;28.99
71960;BMP280;59832;51.146;14.024;2023-06-22T13:14:10;98386.53;;;29.12
71960;BMP280;59832;51.146;14.024;2023-06-22T13:16:37;98381.75;;;29.64
71960;BMP280;59832;51.146;14.024;2023-06-22T13:19:03;98384.06;;;29.39
71960;BMP280;59832;51.146;14.024;2023-06-22T13:21:30;98376.75;;;29.07
71960;BMP280;59832;51.146;14.024;2023-06-22T13:23:57;98372.91;;;29.02
71960;BMP280;59832;51.146;14.024;2023-06-22T13:26:24;98367.97;;;29.15
71960;BMP280;59832;51.146;14.024;2023-06-22T13:28:50;98368.13;;;29.48
71960;BMP280;59832;51.146;14.024;2023-06-22T13:31:17;98365.25;;;29.46
71960;BMP280;59832;51.146;14.024;2023-06-22T13:33:44;98365.75;;;29.56
71960;BMP280;59832;51.146;14.024;2023-06-22T13:36:12;98364.81;;;29.65
71960;BMP280;59832;51.146;14.024;2023-06-22T13:38:39;98362.84;;;29.43
71960;BMP280;59832;51.146;14.024;2023-06-22T13:41:05;98369.28;;;29.47
71960;BMP280;59832;51.146;14.024;2023-06-22T13:43:32;98359.81;;;29.61
71960;BMP280;59832;51.146;14.024;2023-06-22T13:45:58;98353.13;;;29.55
71960;BMP280;59832;51.146;14.024;2023-06-22T13:48:25;98353.53;;;29.36
71960;BMP280;59832;51.146;14.024;2023-06-22T13:50:52;98343.13;;;29.64
71960;BMP280;59832;51.146;14.024;2023-06-22T13:53:18;98329.34;;;30.02
71960;BMP280;59832;51.146;14.024;2023-06-22T13:55:45;98327.63;;;29.55
71960;BMP280;59832;51.146;14.024;2023-06-22T13:58:14;98319.25;;;29.57
71960;BMP280;59832;51.146;14.024;2023-06-22T14:00:40;98313.75;;;29.49
71960;BMP280;59832;51.146;14.024;2023-06-22T14:03:07;98312.38;;;29.59
71960;BMP280;59832;51.146;14.024;2023-06-22T14:05:33;98310.22;;;29.69
71960;BMP280;59832;51.146;14.024;2023-06-22T14:08:00;98304.75;;;29.78
71960;BMP280;59832;51.146;14.024;2023-06-22T14:10:26;98304.75;;;29.72
71960;BMP280;59832;51.146;14.024;2023-06-22T14:12:53;98298.78;;;29.61
71960;BMP280;59832;51.146;14.024;2023-06-22T14:15:21;98301.88;;;29.65
71960;BMP280;59832;51.146;14.024;2023-06-22T14:17:48;98294.94;;;29.51
71960;BMP280;59832;51.146;14.024;2023-06-22T14:20:14;98299.25;;;29.65
71960;BMP280;59832;51.146;14.024;2023-06-22T14:22:41;98295.22;;;29.64
71960;BMP280;59832;51.146;14.024;2023-06-22T14:25:08;98296.16;;;29.61
71960;BMP280;59832;51.146;14.024;2023-06-22T14:27:35;98297.09;;;29.63
71960;BMP280;59832;51.146;14.024;2023-06-22T14:30:01;98296.66;;;29.81
71960;BMP280;59832;51.146;14.024;2023-06-22T14:32:32;98294.97;;;29.84
71960;BMP280;59832;51.146;14.024;2023-06-22T14:34:58;98289.97;;;29.64
71960;BMP280;59832;51.146;14.024;2023-06-22T14:37:25;98279.94;;;29.68
71960;BMP280;59832;51.146;14.024;2023-06-22T14:39:51;98267.56;;;29.79
71960;BMP280;59832;51.146;14.024;2023-06-22T14:42:18;98272.09;;;29.62
71960;BMP280;59832;51.146;14.024;2023-06-22T14:44:45;98269.44;;;29.57
71960;BMP280;59832;51.146;14.024;2023-06-22T14:47:11;98271.06;;;29.37
71960;BMP280;59832;51.146;14.024;2023-06-22T14:49:38;98270.16;;;29.57
71960;BMP280;59832;51.146;14.024;2023-06-22T14:52:05;98274.72;;;29.62
71960;BMP280;59832;51.146;14.024;2023-06-22T14:54:33;98275.16;;;29.61
71960;BMP280;59832;51.146;14.024;2023-06-22T14:57:00;98272.06;;;29.45
71960;BMP280;59832;51.146;14.024;2023-06-22T14:59:27;98265.91;;;29.71
71960;BMP280;59832;51.146;14.024;2023-06-22T15:01:53;98258.25;;;29.62
71960;BMP280;59832;51.146;14.024;2023-06-22T15:04:20;98257.50;;;29.39
71960;BMP280;59832;51.146;14.024;2023-06-22T15:06:46;98244.63;;;29.30
71960;BMP280;59832;51.146;14.024;2023-06-22T15:09:13;98245.13;;;29.51
71960;BMP280;59832;51.146;14.024;2023-06-22T15:11:39;98229.81;;;29.32
71960;BMP280;59832;51.146;14.024;2023-06-22T15:14:06;98227.41;;;29.23
71960;BMP280;59832;51.146;14.024;2023-06-22T15:16:33;98233.81;;;29.06
71960;BMP280;59832;51.146;14.024;2023-06-22T15:19:00;98223.66;;;29.46
71960;BMP280;59832;51.146;14.024;2023-06-22T15:21:26;98217.19;;;29.25
71960;BMP280;59832;51.146;14.024;2023-06-22T15:23:53;98209.59;;;29.38
71960;BMP280;59832;51.146;14.024;2023-06-22T15:26:19;98215.31;;;29.65
71960;BMP280;59832;51.146;14.024;2023-06-22T15:28:45;98212.97;;;29.56
71960;BMP280;59832;51.146;14.024;2023-06-22T15:31:12;98219.59;;;29.34
71960;BMP280;59832;51.146;14.024;2023-06-22T15:33:38;98214.84;;;29.61
71960;BMP280;59832;51.146;14.024;2023-06-22T15:36:05;98223.19;;;29.76
71960;BMP280;59832;51.146;14.024;2023-06-22T15:38:33;98215.13;;;29.63
71960;BMP280;59832;51.146;14.024;2023-06-22T15:40:59;98208.41;;;29.56
71960;BMP280;59832;51.146;14.024;2023-06-22T15:43:26;98207.94;;;29.46
71960;BMP280;59832;51.146;14.024;2023-06-22T15:45:53;98202.38;;;29.17
71960;BMP280;59832;51.146;14.024;2023-06-22T15:48:21;98203.06;;;28.95
71960;BMP280;59832;51.146;14.024;2023-06-22T15:50:48;98188.84;;;29.13
71960;BMP280;59832;51.146;14.024;2023-06-22T15:53:14;98172.88;;;29.33
71960;BMP280;59832;51.146;14.024;2023-06-22T15:55:41;98175.06;;;29.62
71960;BMP280;59832;51.146;14.024;2023-06-22T15:58:07;98159.28;;;29.18
71960;BMP280;59832;51.146;14.024;2023-06-22T16:00:35;98169.97;;;29.14
71960;BMP280;59832;51.146;14.024;2023-06-22T16:03:02;98164.31;;;29.21
71960;BMP280;59832;51.146;14.024;2023-06-22T16:05:28;98159.97;;;29.02
71960;BMP280;59832;51.146;14.024;2023-06-22T16:07:55;98157.16;;;29.27
71960;BMP280;59832;51.146;14.024;2023-06-22T16:10:22;98155.72;;;29.37
71960;BMP280;59832;51.146;14.024;2023-06-22T16:12:50;98153.34;;;29.28
71960;BMP280;59832;51.146;14.024;2023-06-22T16:15:18;98152.38;;;29.20
71960;BMP280;59832;51.146;14.024;2023-06-22T16:17:45;98150.97;;;29.19
71960;BMP280;59832;51.146;14.024;2023-06-22T16:20:11;98146.44;;;29.36
71960;BMP280;59832;51.146;14.024;2023-06-22T16:22:38;98143.31;;;29.49
71960;BMP280;59832;51.146;14.024;2023-06-22T16:25:04;98157.16;;;29.44
71960;BMP280;59832;51.146;14.024;2023-06-22T16:27:31;98158.53;;;29.01
71960;BMP280;59832;51.146;14.024;2023-06-22T16:29:59;98156.41;;;29.05
71960;BMP280;59832;51.146;14.024;2023-06-22T16:32:25;98163.31;;;29.13
71960;BMP280;59832;51.146;14.024;2023-06-22T16:34:52;98148.06;;;28.95
71960;BMP280;59832;51.146;14.024;2023-06-22T16:37:19;98151.63;;;28.98
71960;BMP280;59832;51.146;14.024;2023-06-22T16:39:45;98149.22;;;28.89
71960;BMP280;59832;51.146;14.024;2023-06-22T16:42:12;98156.34;;;28.77
71960;BMP280;59832;51.146;14.024;2023-06-22T16:44:38;98152.03;;;28.74
71960;BMP280;59832;51.146;14.024;2023-06-22T16:47:06;98144.09;;;28.52
71960;BMP280;59832;51.146;14.024;2023-06-22T16:49:33;98143.84;;;28.50
71960;BMP280;59832;51.146;14.024;2023-06-22T16:51:59;98146.22;;;28.42
71960;BMP280;59832;51.146;14.024;2023-06-22T16:54:28;98138.84;;;28.52
71960;BMP280;59832;51.146;14.024;2023-06-22T16:56:59;98135.00;;;28.42
71960;BMP280;59832;51.146;14.024;2023-06-22T16:59:25;98133.66;;;28.57
71960;BMP280;59832;51.146;14.024;2023-06-22T17:01:54;98136.06;;;28.72
71960;BMP280;59832;51.146;14.024;2023-06-22T17:04:23;98122.91;;;28.55
71960;BMP280;59832;51.146;14.024;2023-06-22T17:06:58;98129.19;;;28.75
71960;BMP280;59832;51.146;14.024;2023-06-22T17:09:25;98122.44;;;28.51
71960;BMP280;59832;51.146;14.024;2023-06-22T17:11:53;98110.75;;;28.47
71960;BMP280;59832;51.146;14.024;2023-06-22T17:14:20;98114.19;;;28.22
71960;BMP280;59832;51.146;14.024;2023-06-22T17:16:49;98106.34;;;28.22
71960;BMP280;59832;51.146;14.024;2023-06-22T17:19:16;98106.84;;;28.26
71960;BMP280;59832;51.146;14.024;2023-06-22T17:21:47;98096.31;;;28.09
71960;BMP280;59832;51.146;14.024;2023-06-22T17:24:17;98088.84;;;28.39
71960;BMP280;59832;51.146;14.024;2023-06-22T17:27:02;98082.09;;;28.21
71960;BMP280;59832;51.146;14.024;2023-06-22T17:29:30;98082.97;;;28.13
71960;BMP280;59832;51.146;14.024;2023-06-22T17:31:57;98080.63;;;28.09
71960;BMP280;59832;51.146;14.024;2023-06-22T17:34:28;98076.72;;;27.93
71960;BMP280;59832;51.146;14.024;2023-06-22T17:36:56;98065.63;;;28.10
71960;BMP280;59832;51.146;14.024;2023-06-22T17:39:24;98066.56;;;27.70
71960;BMP280;59832;51.146;14.024;2023-06-22T17:41:51;98078.34;;;27.54
71960;BMP280;59832;51.146;14.024;2023-06-22T17:44:18;98081.13;;;27.45
71960;BMP280;59832;51.146;14.024;2023-06-22T17:46:45;98077.94;;;27.36
71960;BMP280;59832;51.146;14.024;2023-06-22T17:49:12;98076.44;;;27.23
71960;BMP280;59832;51.146;14.024;2023-06-22T17:51:44;98073.94;;;27.09
71960;BMP280;59832;51.146;14.024;2023-06-22T17:54:11;98070.22;;;27.15
71960;BMP280;59832;51.146;14.024;2023-06-22T17:56:38;98053.34;;;26.91
71960;BMP280;59832;51.146;14.024;2023-06-22T17:59:05;98046.88;;;26.86